createdAt,value
2022-11-13T00:01:58.432Z,48.50
2022-11-13T00:04:00.483Z,48.00
2022-11-13T00:06:03.045Z,45.80
2022-11-13T00:08:05.209Z,45.10
2022-11-13T00:10:07.374Z,45.83
2022-11-13T00:12:09.198Z,45.40
2022-11-13T00:14:11.357Z,42.72
2022-11-13T00:16:16.673Z,44.20
2022-11-13T00:18:18.482Z,44.75
2022-11-13T00:20:20.683Z,42.90
2022-11-13T00:22:22.462Z,43.50
2022-11-13T00:24:24.238Z,43.63
2022-11-13T00:26:28.745Z,43.90
2022-11-13T00:28:31.049Z,42.75
2022-11-13T00:30:32.898Z,45.42
2022-11-13T00:32:35.091Z,46.33
2022-11-13T00:34:52.294Z,45.92
2022-11-13T00:36:54.109Z,43.90
2022-11-13T00:38:56.529Z,43.25
2022-11-13T00:40:59.043Z,44.10
2022-11-13T00:43:00.822Z,43.30
2022-11-13T00:45:03.038Z,42.55
2022-11-13T00:47:05.074Z,41.47
2022-11-13T00:49:06.954Z,43.10
2022-11-13T00:51:09.115Z,43.17
2022-11-13T00:53:16.836Z,43.85
2022-11-13T00:55:20.049Z,41.67
2022-11-13T00:57:22.226Z,41.90
2022-11-13T00:59:24.011Z,42.83
2022-11-13T01:01:25.832Z,42.10
2022-11-13T01:03:28.070Z,40.20
2022-11-13T01:05:30.066Z,42.13
2022-11-13T01:07:31.983Z,43.45
2022-11-13T01:09:34.147Z,41.67
2022-11-13T01:11:35.930Z,43.58
2022-11-13T01:13:38.897Z,43.80
2022-11-13T01:15:43.248Z,42.55
2022-11-13T01:17:45.135Z,42.75
2022-11-13T01:19:47.031Z,42.72
2022-11-13T01:21:49.161Z,42.75
2022-11-13T01:23:51.452Z,43.17
2022-11-13T01:25:53.251Z,42.90
2022-11-13T01:27:55.541Z,41.53
2022-11-13T01:29:57.336Z,42.15
2022-11-13T01:31:59.132Z,41.65
2022-11-13T01:34:01.566Z,40.58
2022-11-13T01:36:13.186Z,38.65
2022-11-13T01:38:15.267Z,38.53
2022-11-13T01:40:17.578Z,39.22
2022-11-13T01:42:19.389Z,39.63
2022-11-13T01:44:21.541Z,39.50
2022-11-13T01:46:31.206Z,38.67
2022-11-13T01:48:42.387Z,38.90
2022-11-13T01:50:44.236Z,37.38
2022-11-13T01:52:46.430Z,39.75
2022-11-13T01:54:55.255Z,39.63
2022-11-13T01:56:58.295Z,40.28
2022-11-13T01:59:28.928Z,40.20
2022-11-13T02:01:30.807Z,58.50
2022-11-13T02:03:32.659Z,40.17
2022-11-13T02:05:35.069Z,38.25
2022-11-13T02:07:36.926Z,38.27
2022-11-13T02:09:43.286Z,39.45
2022-11-13T02:11:45.923Z,40.83
2022-11-13T02:13:48.170Z,38.03
2022-11-13T02:15:51.025Z,39.60
2022-11-13T02:20:02.090Z,38.13
2022-11-13T02:22:28.205Z,38.42
2022-11-13T02:24:36.782Z,39.15
2022-11-13T02:26:40.316Z,38.28
2022-11-13T02:28:42.162Z,40.05
2022-11-13T02:30:44.534Z,38.85
2022-11-13T02:32:49.498Z,38.67
2022-11-13T02:34:51.307Z,37.05
2022-11-13T02:36:53.570Z,38.95
2022-11-13T02:38:58.669Z,36.47
2022-11-13T02:41:00.759Z,36.72
2022-11-13T02:43:02.867Z,35.65
2022-11-13T02:45:06.443Z,36.05
2022-11-13T02:47:08.339Z,36.58
2022-11-13T02:49:10.463Z,36.65
2022-11-13T02:51:12.240Z,35.83
2022-11-13T02:53:14.084Z,36.47
2022-11-13T02:55:16.320Z,35.72
2022-11-13T02:57:18.324Z,35.70
2022-11-13T02:59:20.103Z,37.17
2022-11-13T03:01:22.441Z,35.47
2022-11-13T03:03:55.576Z,36.00
2022-11-13T03:05:50.191Z,35.88
2022-11-13T03:07:52.430Z,36.30
2022-11-13T03:09:54.253Z,36.88
2022-11-13T03:11:56.026Z,36.20
2022-11-13T03:13:58.172Z,37.20
2022-11-13T03:16:15.163Z,36.03
2022-11-13T03:18:16.988Z,36.15
2022-11-13T03:20:19.270Z,37.05
2022-11-13T03:22:21.103Z,35.47
2022-11-13T03:24:22.892Z,36.85
2022-11-13T03:26:27.975Z,35.80
2022-11-13T03:28:30.134Z,36.35
2022-11-13T03:30:32.154Z,39.90
2022-11-13T03:32:34.330Z,49.53
2022-11-13T03:34:36.139Z,38.17
2022-11-13T03:36:37.978Z,38.38
2022-11-13T03:38:40.100Z,38.08
2022-11-13T03:40:42.801Z,38.28
2022-11-13T03:42:44.621Z,38.25
2022-11-13T03:44:46.887Z,37.58
2022-11-13T03:46:48.707Z,37.38
2022-11-13T03:48:50.506Z,38.05
2022-11-13T03:50:55.115Z,38.45
2022-11-13T03:52:57.149Z,37.60
2022-11-13T03:54:59.008Z,37.97
2022-11-13T03:57:01.170Z,37.28
2022-11-13T03:59:02.963Z,35.72
2022-11-13T04:01:04.840Z,34.60
2022-11-13T04:03:07.410Z,40.33
2022-11-13T04:05:09.435Z,37.00
2022-11-13T04:07:11.276Z,36.57
2022-11-13T04:09:13.609Z,34.25
2022-11-13T04:11:15.400Z,36.83
2022-11-13T04:13:17.270Z,37.13
2022-11-13T04:15:19.459Z,36.22
2022-11-13T04:17:21.313Z,36.78
2022-11-13T04:19:23.123Z,36.65
2022-11-13T04:21:25.553Z,37.38
2022-11-13T04:23:27.566Z,38.03
2022-11-13T04:25:29.333Z,37.00
2022-11-13T04:27:31.526Z,36.50
2022-11-13T04:29:33.327Z,41.88
2022-11-13T04:31:35.172Z,39.50
2022-11-13T04:33:37.365Z,37.45
2022-11-13T04:35:48.605Z,37.40
2022-11-13T04:37:50.444Z,34.95
2022-11-13T04:39:52.603Z,35.97
2022-11-13T04:42:12.925Z,36.80
2022-11-13T04:44:14.778Z,37.65
2022-11-13T04:46:16.904Z,36.35
2022-11-13T04:48:18.686Z,36.92
2022-11-13T04:50:21.100Z,36.92
2022-11-13T04:52:23.226Z,37.53
2022-11-13T04:54:28.716Z,38.17
2022-11-13T04:56:31.279Z,37.45
2022-11-13T04:58:33.413Z,38.05
2022-11-13T05:00:35.186Z,38.92
2022-11-13T05:02:37.357Z,38.40
2022-11-13T05:04:39.495Z,37.97
2022-11-13T05:06:41.569Z,37.90
2022-11-13T05:08:43.536Z,38.08
2022-11-13T05:10:45.660Z,37.22
2022-11-13T05:12:47.547Z,35.88
2022-11-13T05:14:49.574Z,33.40
2022-11-13T05:16:51.799Z,35.50
2022-11-13T05:18:53.644Z,35.28
2022-11-13T05:20:55.712Z,34.05
2022-11-13T05:22:57.835Z,34.40
2022-11-13T05:24:59.606Z,32.92
2022-11-13T05:27:01.569Z,33.35
2022-11-13T05:29:03.850Z,33.22
2022-11-13T05:31:09.976Z,32.95
2022-11-13T05:33:11.854Z,34.33
2022-11-13T05:35:14.175Z,35.15
2022-11-13T05:37:16.043Z,34.67
2022-11-13T05:39:17.875Z,33.50
2022-11-13T05:41:22.167Z,34.05
2022-11-13T05:43:24.044Z,34.92
2022-11-13T05:45:25.942Z,35.15
2022-11-13T05:47:28.123Z,36.17
2022-11-13T05:49:29.945Z,35.33
2022-11-13T05:51:34.402Z,34.15
2022-11-13T05:53:37.215Z,33.65
2022-11-13T05:55:39.048Z,36.00
2022-11-13T05:57:40.928Z,37.00
2022-11-13T05:59:43.117Z,51.15
2022-11-13T06:01:45.125Z,37.22
2022-11-13T06:03:47.816Z,37.40
2022-11-13T06:05:50.100Z,35.80
2022-11-13T06:07:51.920Z,36.75
2022-11-13T06:09:53.700Z,37.55
2022-11-13T06:11:55.994Z,35.27
2022-11-13T06:13:59.024Z,36.53
2022-11-13T06:18:04.441Z,36.78
2022-11-13T06:20:06.655Z,36.95
2022-11-13T06:22:08.683Z,38.28
2022-11-13T06:24:12.900Z,37.20
2022-11-13T06:26:17.878Z,37.22
2022-11-13T06:28:19.754Z,37.88
2022-11-13T06:30:22.006Z,38.38
2022-11-13T06:32:23.841Z,37.78
2022-11-13T06:34:26.073Z,38.45
2022-11-13T06:36:31.216Z,38.33
2022-11-13T06:38:35.677Z,38.08
2022-11-13T06:40:40.539Z,38.65
2022-11-13T06:42:45.597Z,36.00
2022-11-13T06:44:47.516Z,37.72
2022-11-13T06:46:49.372Z,36.75
2022-11-13T06:48:52.602Z,38.45
2022-11-13T06:50:54.445Z,35.00
2022-11-13T06:52:56.467Z,34.90
2022-11-13T06:55:00.153Z,34.13
2022-11-13T06:57:01.982Z,32.95
2022-11-13T06:59:08.152Z,30.75
2022-11-13T07:01:14.074Z,29.38
2022-11-13T07:03:20.614Z,28.85
2022-11-13T07:05:22.415Z,28.60
2022-11-13T07:07:24.579Z,27.88
2022-11-13T07:09:26.719Z,28.10
2022-11-13T07:11:28.461Z,24.83
2022-11-13T07:13:30.640Z,24.98
2022-11-13T07:15:36.998Z,24.77
2022-11-13T07:17:38.955Z,25.65
2022-11-13T07:19:41.108Z,26.65
2022-11-13T07:21:42.934Z,25.40
2022-11-13T07:23:48.123Z,25.95
2022-11-13T07:25:53.886Z,25.60
2022-11-13T07:27:55.652Z,26.58
2022-11-13T07:30:02.296Z,25.83
2022-11-13T07:32:06.097Z,25.23
2022-11-13T07:34:07.938Z,23.77
2022-11-13T07:36:10.870Z,25.08
2022-11-13T07:38:13.259Z,23.83
2022-11-13T07:40:15.202Z,23.80
2022-11-13T07:42:17.245Z,22.77
2022-11-13T07:44:33.461Z,34.72
2022-11-13T07:46:41.341Z,22.50
2022-11-13T07:48:43.116Z,22.17
2022-11-13T07:50:45.399Z,23.55
2022-11-13T07:52:47.251Z,22.40
2022-11-13T07:54:49.335Z,22.95
2022-11-13T07:56:51.490Z,22.95
2022-11-13T07:58:53.495Z,23.08
2022-11-13T08:00:55.300Z,23.08
2022-11-13T08:02:57.815Z,23.77
2022-11-13T08:04:59.628Z,27.08
2022-11-13T08:07:01.603Z,22.25
2022-11-13T08:09:04.663Z,22.13
2022-11-13T08:11:08.912Z,20.77
2022-11-13T08:13:11.361Z,21.38
2022-11-13T08:15:13.994Z,20.15
2022-11-13T08:17:16.010Z,20.95
2022-11-13T08:19:18.007Z,28.05
2022-11-13T08:21:21.378Z,18.73
2022-11-13T08:23:23.585Z,19.65
2022-11-13T08:25:25.526Z,18.80
2022-11-13T08:27:28.214Z,20.02
2022-11-13T08:29:30.164Z,18.73
2022-11-13T08:31:32.103Z,19.33
2022-11-13T08:33:34.273Z,20.80
2022-11-13T08:35:36.179Z,22.13
2022-11-13T08:37:38.003Z,22.90
2022-11-13T08:39:40.350Z,22.25
2022-11-13T08:41:42.131Z,23.33
2022-11-13T08:43:43.932Z,22.52
2022-11-13T08:45:47.487Z,24.67
2022-11-13T08:47:49.348Z,22.92
2022-11-13T08:49:51.117Z,22.10
2022-11-13T08:51:53.258Z,22.10
2022-11-13T08:53:55.319Z,22.15
2022-11-13T08:56:01.990Z,22.83
2022-11-13T08:58:05.087Z,22.05
2022-11-13T09:00:07.807Z,20.25
2022-11-13T09:02:14.502Z,20.58
2022-11-13T09:04:16.776Z,35.42
2022-11-13T09:06:18.687Z,21.02
2022-11-13T09:08:20.620Z,21.10
2022-11-13T09:10:23.110Z,21.63
2022-11-13T09:12:24.943Z,19.65
2022-11-13T09:14:28.216Z,18.65
2022-11-13T09:16:30.448Z,19.25
2022-11-13T09:18:32.453Z,18.57
2022-11-13T09:20:34.624Z,19.50
2022-11-13T09:22:36.879Z,18.58
2022-11-13T09:24:38.875Z,19.33
2022-11-13T09:26:40.783Z,21.58
2022-11-13T09:28:43.028Z,19.73
2022-11-13T09:30:44.917Z,19.33
2022-11-13T09:32:46.773Z,19.92
2022-11-13T09:34:48.912Z,19.17
2022-11-13T09:36:50.838Z,19.95
2022-11-13T09:38:52.652Z,19.90
2022-11-13T09:41:04.239Z,19.67
2022-11-13T09:43:11.669Z,18.98
2022-11-13T09:45:15.681Z,19.50
2022-11-13T09:47:32.121Z,18.63
2022-11-13T09:49:40.265Z,18.17
2022-11-13T09:51:49.799Z,16.73
2022-11-13T09:53:52.435Z,16.35
2022-11-13T09:56:13.428Z,15.32
2022-11-13T09:58:36.827Z,16.73
2022-11-13T10:00:39.553Z,17.52
2022-11-13T10:02:47.425Z,15.98
2022-11-13T10:05:07.820Z,15.05
2022-11-13T10:07:36.989Z,14.60
2022-11-13T10:09:56.337Z,14.60
2022-11-13T10:12:04.655Z,14.00
2022-11-13T10:14:14.632Z,13.80
2022-11-13T10:16:33.434Z,14.50
2022-11-13T10:18:37.955Z,13.82
2022-11-13T10:20:52.002Z,19.70
2022-11-13T10:22:57.073Z,13.20
2022-11-13T10:25:05.613Z,13.13
2022-11-13T10:27:13.146Z,12.23
2022-11-13T10:29:20.228Z,11.95
2022-11-13T10:32:12.870Z,14.00
2022-11-13T10:34:16.979Z,12.55
2022-11-13T10:36:36.483Z,13.55
2022-11-13T10:38:44.897Z,13.48
2022-11-13T10:40:47.115Z,13.95
2022-11-13T10:42:48.931Z,21.92
2022-11-13T10:44:57.300Z,13.82
2022-11-13T10:47:36.482Z,13.15
2022-11-13T10:49:42.315Z,13.80
2022-11-13T10:51:44.184Z,12.80
2022-11-13T10:53:47.306Z,13.15
2022-11-13T10:55:53.003Z,12.57
2022-11-13T10:58:00.617Z,13.20
2022-11-13T11:00:22.985Z,13.80
2022-11-13T11:02:26.711Z,14.02
2022-11-13T11:04:29.050Z,13.20
2022-11-13T11:07:04.590Z,13.88
2022-11-13T11:09:20.542Z,13.30
2022-11-13T11:11:41.201Z,13.57
2022-11-13T11:13:43.266Z,13.98
2022-11-13T11:15:51.903Z,13.40
2022-11-13T11:18:05.018Z,14.50
2022-11-13T11:20:48.670Z,15.02
2022-11-13T11:22:55.115Z,13.68
2022-11-13T11:25:09.247Z,14.27
2022-11-13T11:27:23.124Z,15.43
2022-11-13T11:29:44.382Z,19.42
2022-11-13T11:32:16.051Z,17.30
2022-11-13T11:34:24.640Z,15.48
2022-11-13T11:36:46.309Z,14.90
2022-11-13T11:39:13.410Z,16.40
2022-11-13T11:41:19.210Z,14.68
2022-11-13T11:43:37.808Z,24.85
2022-11-13T11:45:43.550Z,20.30
2022-11-13T11:47:45.473Z,15.82
2022-11-13T11:49:47.522Z,15.18
2022-11-13T11:52:13.094Z,15.93
2022-11-13T11:54:28.443Z,14.20
2022-11-13T11:56:47.479Z,16.25
2022-11-13T11:58:54.743Z,15.02
2022-11-13T12:01:06.721Z,14.95
2022-11-13T12:03:55.591Z,15.02
2022-11-13T12:06:11.957Z,15.10
2022-11-13T12:08:44.978Z,15.90
2022-11-13T12:10:58.353Z,15.90
2022-11-13T12:13:16.771Z,15.23
2022-11-13T12:15:26.794Z,14.73
2022-11-13T12:17:40.636Z,15.48
2022-11-13T12:20:07.557Z,15.30
2022-11-13T12:22:48.628Z,15.48
2022-11-13T12:25:00.646Z,17.13
2022-11-13T12:27:31.288Z,19.00
2022-11-13T12:29:38.742Z,14.30
2022-11-13T12:32:04.904Z,14.38
2022-11-13T12:34:46.050Z,15.13
2022-11-13T12:36:49.341Z,14.80
2022-11-13T12:41:02.582Z,12.98
2022-11-13T12:43:28.783Z,15.20
2022-11-13T12:45:49.807Z,14.95
2022-11-13T12:47:52.311Z,15.00
2022-11-13T12:50:02.863Z,15.38
2022-11-13T12:52:16.450Z,17.02
2022-11-13T12:54:25.759Z,15.80
2022-11-13T12:56:28.031Z,16.20
2022-11-13T12:58:33.545Z,15.85
2022-11-13T13:00:38.129Z,15.32
2022-11-13T13:02:55.480Z,15.48
2022-11-13T13:05:40.852Z,15.15
2022-11-13T13:07:52.201Z,15.18
2022-11-13T13:10:13.894Z,15.18
2022-11-13T13:12:54.082Z,15.68
2022-11-13T13:15:11.926Z,14.23
2022-11-13T13:17:13.740Z,15.15
2022-11-13T13:19:26.937Z,14.98
2022-11-13T13:21:41.347Z,15.45
2022-11-13T13:23:48.654Z,15.70
2022-11-13T13:26:21.832Z,15.82
2022-11-13T13:28:24.221Z,16.52
2022-11-13T13:30:27.607Z,16.90
2022-11-13T13:32:40.984Z,17.00
2022-11-13T13:35:07.246Z,16.15
2022-11-13T13:37:37.648Z,16.50
2022-11-13T13:40:00.341Z,17.23
2022-11-13T13:42:23.787Z,17.70
2022-11-13T13:44:37.987Z,17.42
2022-11-13T13:46:41.411Z,18.27
2022-11-13T13:48:46.155Z,17.88
2022-11-13T13:50:50.470Z,18.00
2022-11-13T13:52:56.053Z,17.27
2022-11-13T13:55:01.773Z,17.73
2022-11-13T13:57:03.750Z,18.40
2022-11-13T13:59:06.544Z,17.17
2022-11-13T14:01:19.410Z,17.52
2022-11-13T14:03:25.151Z,19.88
2022-11-13T14:05:31.173Z,18.65
2022-11-13T14:07:35.547Z,19.67
2022-11-13T14:09:37.443Z,19.13
2022-11-13T14:11:39.366Z,18.33
2022-11-13T14:13:42.114Z,17.83
2022-11-13T14:15:44.214Z,17.30
2022-11-13T14:17:46.021Z,18.52
2022-11-13T14:19:56.645Z,18.10
2022-11-13T14:22:03.977Z,17.20
2022-11-13T14:24:14.643Z,18.60
2022-11-13T14:26:18.465Z,18.15
2022-11-13T14:28:23.964Z,16.90
2022-11-13T14:30:28.536Z,17.65
2022-11-13T14:32:34.457Z,17.35
2022-11-13T14:34:37.292Z,17.70
2022-11-13T14:36:40.921Z,17.25
2022-11-13T14:38:51.814Z,17.48
2022-11-13T14:40:54.615Z,17.08
2022-11-13T14:43:07.667Z,16.77
2022-11-13T14:45:16.172Z,16.83
2022-11-13T14:47:37.535Z,17.58
2022-11-13T14:49:39.789Z,17.55
2022-11-13T14:51:42.252Z,18.42
2022-11-13T14:53:44.095Z,18.40
2022-11-13T14:55:53.996Z,20.27
2022-11-13T14:57:56.270Z,19.83
2022-11-13T15:00:13.258Z,21.80
2022-11-13T15:02:15.156Z,19.63
2022-11-13T15:04:17.335Z,19.80
2022-11-13T15:06:21.787Z,22.23
2022-11-13T15:08:23.571Z,21.27
2022-11-13T15:10:28.420Z,21.27
2022-11-13T15:12:30.310Z,23.13
2022-11-13T15:14:33.211Z,22.63
2022-11-13T15:16:36.349Z,22.15
2022-11-13T15:18:38.136Z,22.50
2022-11-13T15:20:41.364Z,24.27
2022-11-13T15:22:43.848Z,23.52
2022-11-13T15:24:45.753Z,24.00
2022-11-13T15:26:47.628Z,23.67
2022-11-13T15:28:50.342Z,23.42
2022-11-13T15:30:52.377Z,24.70
2022-11-13T15:32:54.860Z,24.27
2022-11-13T15:34:57.182Z,24.77
2022-11-13T15:36:58.999Z,24.58
2022-11-13T15:39:06.203Z,24.63
2022-11-13T15:41:13.883Z,25.17
2022-11-13T15:43:22.370Z,26.02
2022-11-13T15:45:25.658Z,26.25
2022-11-13T15:47:35.778Z,28.60
2022-11-13T15:49:40.659Z,28.25
2022-11-13T15:51:48.924Z,27.92
2022-11-13T15:53:58.831Z,27.60
2022-11-13T15:56:03.268Z,27.48
2022-11-13T15:58:05.122Z,29.23
2022-11-13T16:00:17.190Z,29.73
2022-11-13T16:02:19.953Z,27.38
2022-11-13T16:04:22.275Z,29.65
2022-11-13T16:06:24.832Z,30.13
2022-11-13T16:08:27.024Z,27.35
2022-11-13T16:10:29.263Z,27.50
2022-11-13T16:12:31.599Z,26.70
2022-11-13T16:14:33.391Z,27.27
2022-11-13T16:16:38.515Z,26.90
2022-11-13T16:18:40.935Z,26.35
2022-11-13T16:20:42.702Z,26.53
2022-11-13T16:22:45.082Z,25.17
2022-11-13T16:24:47.603Z,26.55
2022-11-13T16:26:54.679Z,28.42
2022-11-13T16:31:19.916Z,26.60
2022-11-13T16:33:21.735Z,26.02
2022-11-13T16:35:23.549Z,26.23
2022-11-13T16:37:25.774Z,25.08
2022-11-13T16:39:27.798Z,24.75
2022-11-13T16:41:31.674Z,26.02
2022-11-13T16:43:33.925Z,24.85
2022-11-13T16:45:38.461Z,24.83
2022-11-13T16:47:40.363Z,27.15
2022-11-13T16:49:42.565Z,26.17
2022-11-13T16:51:45.991Z,26.65
2022-11-13T16:53:47.898Z,23.88
2022-11-13T16:55:50.139Z,24.77
2022-11-13T16:57:52.021Z,25.65
2022-11-13T16:59:53.805Z,25.55
2022-11-13T17:01:56.122Z,26.02
2022-11-13T17:03:58.349Z,25.73
2022-11-13T17:06:00.161Z,26.02
2022-11-13T17:08:02.683Z,24.13
2022-11-13T17:10:29.767Z,24.65
2022-11-13T17:12:27.111Z,23.33
2022-11-13T17:14:29.332Z,23.55
2022-11-13T17:16:32.131Z,23.23
2022-11-13T17:18:34.674Z,22.95
2022-11-13T17:22:48.251Z,24.15
2022-11-13T17:24:50.656Z,23.40
2022-11-13T17:26:53.667Z,23.13
2022-11-13T17:28:58.454Z,24.50
2022-11-13T17:31:05.742Z,24.05
2022-11-13T17:33:07.906Z,25.08
2022-11-13T17:35:12.805Z,25.23
2022-11-13T17:37:14.911Z,24.98
2022-11-13T17:39:17.092Z,43.42
2022-11-13T17:41:19.267Z,30.73
2022-11-13T17:43:22.218Z,27.67
2022-11-13T17:45:24.653Z,27.92
2022-11-13T17:47:26.596Z,27.17
2022-11-13T17:49:28.813Z,29.05
2022-11-13T17:51:31.003Z,28.17
2022-11-13T17:53:33.797Z,32.63
2022-11-13T17:55:35.622Z,35.45
2022-11-13T17:57:37.815Z,34.78
2022-11-13T17:59:40.284Z,34.22
2022-11-13T18:01:42.282Z,34.05
2022-11-13T18:03:44.479Z,40.08
2022-11-13T18:05:46.765Z,38.13
2022-11-13T18:07:48.641Z,50.63
2022-11-13T18:09:50.856Z,37.60
2022-11-13T18:11:52.790Z,37.55
2022-11-13T18:13:54.829Z,36.33
2022-11-13T18:16:03.720Z,34.60
2022-11-13T18:18:07.140Z,34.40
2022-11-13T18:20:09.953Z,34.53
2022-11-13T18:22:12.078Z,33.70
2022-11-13T18:24:17.154Z,35.08
2022-11-13T18:26:19.389Z,34.65
2022-11-13T18:28:21.703Z,35.75
2022-11-13T18:30:23.504Z,34.47
2022-11-13T18:32:25.430Z,34.05
2022-11-13T18:34:28.975Z,34.15
2022-11-13T18:36:32.421Z,35.20
2022-11-13T18:38:34.439Z,34.90
2022-11-13T18:40:38.098Z,34.35
2022-11-13T18:42:39.911Z,33.03
2022-11-13T18:44:41.683Z,33.85
2022-11-13T18:46:44.107Z,33.28
2022-11-13T18:48:47.177Z,33.97
2022-11-13T18:50:59.867Z,31.35
2022-11-13T18:53:02.051Z,32.78
2022-11-13T18:55:04.212Z,32.72
2022-11-13T18:57:06.015Z,33.17
2022-11-13T18:59:08.443Z,32.60
2022-11-13T19:01:22.151Z,32.10
2022-11-13T19:03:25.041Z,31.45
2022-11-13T19:05:27.265Z,33.20
2022-11-13T19:07:29.451Z,34.35
2022-11-13T19:09:31.325Z,33.50
2022-11-13T19:11:34.237Z,34.25
2022-11-13T19:13:37.382Z,36.17
2022-11-13T19:15:39.585Z,35.10
2022-11-13T19:17:42.303Z,36.20
2022-11-13T19:19:44.618Z,35.80
2022-11-13T19:21:47.339Z,33.97
2022-11-13T19:23:50.271Z,35.50
2022-11-13T19:25:52.155Z,38.13
2022-11-13T19:27:54.382Z,35.83
2022-11-13T19:29:56.601Z,36.08
2022-11-13T19:31:58.383Z,35.70
2022-11-13T19:34:03.401Z,35.40
2022-11-13T19:36:08.931Z,34.17
2022-11-13T19:38:10.705Z,34.95
2022-11-13T19:40:12.788Z,36.42
2022-11-13T19:42:15.054Z,36.92
2022-11-13T19:44:17.194Z,33.70
2022-11-13T19:46:20.008Z,33.60
2022-11-13T19:48:22.585Z,35.08
2022-11-13T19:50:24.577Z,36.03
2022-11-13T19:52:26.566Z,33.90
2022-11-13T19:54:28.891Z,35.28
2022-11-13T19:56:30.658Z,62.95
2022-11-13T19:58:33.581Z,38.50
2022-11-13T20:00:36.312Z,36.45
2022-11-13T20:02:38.300Z,34.90
2022-11-13T20:04:40.256Z,36.13
2022-11-13T20:06:42.464Z,34.47
2022-11-13T20:08:44.742Z,35.60
2022-11-13T20:10:46.534Z,33.78
2022-11-13T20:12:49.229Z,34.20
2022-11-13T20:14:51.010Z,31.85
2022-11-13T20:16:52.804Z,33.33
2022-11-13T20:18:57.112Z,32.50
2022-11-13T20:20:59.374Z,32.63
2022-11-13T20:23:01.479Z,33.00
2022-11-13T20:25:03.996Z,29.73
2022-11-13T20:27:06.199Z,32.33
2022-11-13T20:29:08.113Z,28.90
2022-11-13T20:31:22.302Z,29.02
2022-11-13T20:33:24.315Z,27.33
2022-11-13T20:35:26.168Z,27.27
2022-11-13T20:37:28.299Z,28.00
2022-11-13T20:39:30.169Z,26.98
2022-11-13T20:41:32.187Z,26.63
2022-11-13T20:43:34.429Z,25.17
2022-11-13T20:45:36.285Z,24.23
2022-11-13T20:47:38.205Z,24.63
2022-11-13T20:49:40.568Z,23.60
2022-11-13T20:51:42.359Z,24.05
2022-11-13T20:53:44.374Z,24.80
2022-11-13T20:55:46.519Z,28.25
2022-11-13T20:57:48.307Z,28.75
2022-11-13T20:59:50.167Z,30.08
2022-11-13T21:01:52.488Z,29.40
2022-11-13T21:03:56.095Z,28.55
2022-11-13T21:05:58.599Z,27.98
2022-11-13T21:08:00.872Z,29.00
2022-11-13T21:10:02.788Z,28.85
2022-11-13T21:12:04.909Z,27.92
2022-11-13T21:14:07.076Z,27.63
2022-11-13T21:16:09.754Z,27.25
2022-11-13T21:18:11.612Z,27.85
2022-11-13T21:20:14.088Z,29.08
2022-11-13T21:22:15.967Z,27.93
2022-11-13T21:24:17.939Z,27.90
2022-11-13T21:26:20.097Z,28.25
2022-11-13T21:28:24.169Z,26.77
2022-11-13T21:30:28.682Z,25.00
2022-11-13T21:32:31.375Z,25.63
2022-11-13T21:34:33.231Z,25.05
2022-11-13T21:36:35.107Z,25.27
2022-11-13T21:38:37.601Z,26.80
2022-11-13T21:40:39.368Z,20.65
2022-11-13T21:42:41.312Z,20.73
2022-11-13T21:44:43.503Z,19.05
2022-11-13T21:46:45.932Z,21.45
2022-11-13T21:48:49.401Z,20.00
2022-11-13T21:50:51.613Z,19.33
2022-11-13T21:52:53.460Z,18.40
2022-11-13T21:54:55.239Z,19.17
2022-11-13T21:56:57.427Z,18.87
2022-11-13T21:58:59.787Z,18.52
2022-11-13T22:01:01.871Z,17.88
2022-11-13T22:03:04.127Z,17.80
2022-11-13T22:05:06.440Z,17.17
2022-11-13T22:07:08.540Z,16.67
2022-11-13T22:09:19.871Z,16.60
2022-11-13T22:11:23.070Z,15.65
2022-11-13T22:13:24.861Z,17.15
2022-11-13T22:15:27.056Z,16.60
2022-11-13T22:17:28.808Z,16.90
2022-11-13T22:19:35.652Z,17.02
2022-11-13T22:21:40.008Z,18.00
2022-11-13T22:23:41.950Z,17.88
2022-11-13T22:25:43.731Z,15.88
2022-11-13T22:27:46.408Z,15.23
2022-11-13T22:29:48.167Z,15.75
2022-11-13T22:31:50.161Z,15.65
2022-11-13T22:33:55.127Z,15.32
2022-11-13T22:36:08.701Z,14.18
2022-11-13T22:40:14.262Z,16.70
2022-11-13T22:42:16.127Z,15.32
2022-11-13T22:44:18.458Z,15.23
2022-11-13T22:46:25.822Z,15.30
2022-11-13T22:48:28.005Z,15.00
2022-11-13T22:50:30.057Z,15.25
2022-11-13T22:52:32.378Z,16.83
2022-11-13T22:54:34.209Z,16.58
2022-11-13T22:56:37.314Z,16.60
2022-11-13T22:58:39.499Z,16.90
2022-11-13T23:00:41.450Z,16.73
2022-11-13T23:02:47.279Z,18.30
2022-11-13T23:04:49.907Z,18.13
2022-11-13T23:06:51.749Z,17.42
2022-11-13T23:08:54.699Z,17.60
2022-11-13T23:10:57.638Z,17.45
2022-11-13T23:12:59.575Z,17.23
2022-11-13T23:15:01.354Z,18.48
2022-11-13T23:17:03.785Z,18.23
2022-11-13T23:19:05.841Z,18.27
2022-11-13T23:21:09.228Z,18.38
2022-11-13T23:23:11.452Z,18.65
2022-11-13T23:25:13.313Z,18.67
2022-11-13T23:27:15.093Z,19.73
2022-11-13T23:29:17.317Z,18.73
2022-11-13T23:31:19.504Z,18.70
2022-11-13T23:33:21.387Z,19.77
2022-11-13T23:35:23.921Z,19.83
2022-11-13T23:37:25.703Z,20.10
2022-11-13T23:39:27.577Z,20.48
2022-11-13T23:41:29.715Z,20.58
2022-11-13T23:44:07.126Z,20.67
2022-11-13T23:45:53.832Z,20.38
2022-11-13T23:47:56.083Z,19.48
2022-11-13T23:49:57.937Z,20.67
2022-11-13T23:51:59.762Z,20.92
2022-11-13T23:54:02.018Z,20.55
2022-11-13T23:56:04.047Z,21.38
2022-11-13T23:58:09.584Z,21.52
